上海/浦東 の空港の天気 - METARとTAF

上海浦東国際空港 ( ZSPD / PVG ) - 中国 上海市
飛行場実況気象(Metar)
観測時間11/27 17:00 CST (11/27 09:00 UTC)
風向・風速南 5m/s
視程10km以上
天気現象
なし
気温19℃
湿度78%
気圧1012hPa
METARZSPD 270900Z 17005MPS CAVOK 19/15 Q1012 NOSIG
過去の天気等 Google飛行場航空写真 Wunderground天気予報

過去48時間のMETAR

飛行場予報(TAF)
発表時間: 11/27 11:01 CST (11/27 03:01 UTC)
予報対象時間: 27日14時 CST ~ 28日14時 CST
風向・風速南南東 5m/s
視程6000m
全天の8割程度の雲 雲底高度 610m
TAF ZSPD 270301Z 2706/2806 15005MPS 6000 BKN020 TX21/2706Z TN11/2721Z